This is the latest recevied weather packets stored in our database for station/object N7JP. If no packets are shown the sender has not sent any weather packets the latest 1 day(s).
| Time | Temp. | Humidity | Pressure | Rain* | Wind** | Luminosity | Snow |
|---|---|---|---|---|---|---|---|
| 1778058800 | 8.89° C | 90% | 1012.1 hPa | 0 mm | - | - | - |
| 1778057902 | 9.44° C | 90% | 1012.2 hPa | 0 mm | - | - | - |
| 1778053389 | 10° C | 91% | 1011.4 hPa | 0 mm | - | - | - |
| 1778051588 | 10° C | 91% | 1011.3 hPa | 0 mm | - | - | - |
| 1778050661 | 10° C | 91% | 1011.2 hPa | 0 mm | - | - | - |
| 1778047936 | 11.11° C | 90% | 1011.1 hPa | 0 mm | - | - | - |
| 1778046107 | 11.67° C | 89% | 1010.9 hPa | 0 mm | - | - | - |
| 1778044307 | 11.67° C | 90% | 1010.6 hPa | 0 mm | - | - | - |
| 1778042477 | 12.22° C | 86% | 1010.2 hPa | 0 mm | - | - | - |
| 1778041579 | 12.22° C | 85% | 1010.1 hPa | 0 mm | - | - | - |
| 1778040665 | 12.78° C | 84% | 1009.9 hPa | 0 mm | - | - | - |
| 1778037959 | 13.33° C | 83% | 1009.7 hPa | 0 mm | - | - | - |
| 1778036131 | 14.44° C | 81% | 1009.7 hPa | 0 mm | - | - | - |
| 1778035210 | 15° C | 80% | 1009.6 hPa | 0 mm | - | - | - |
| 1778033374 | 15° C | 81% | 1009.6 hPa | 0 mm | - | - | - |
| 1778032469 | 15.56° C | 79% | 1009.6 hPa | 0 mm | - | - | - |
| 1778031570 | 15.56° C | 78% | 1009.6 hPa | 0 mm | - | - | - |
| 1778030668 | 16.11° C | 75% | 1009.6 hPa | 0 mm | - | - | - |
| 1778029761 | 17.78° C | 72% | 1009.6 hPa | 0 mm | - | - | - |
| 1778028833 | 17.78° C | 73% | 1009.7 hPa | 0 mm | - | - | - |
| 1778027933 | 17.78° C | 73% | 1009.7 hPa | 0 mm | - | - | - |
| 1778027034 | 17.78° C | 73% | 1009.7 hPa | 0 mm | - | - | - |
* Rain latest hour (hover to see other rain measurements)
** Current wind speed in m/s (hover to see current wind gust speed)